Time;durP1;ratioP1;P1;durP2;ratioP2;P2;SDS_P1;SDS_P2;PMS_P1;PMS_P2;Temp;Humidity;BMP_temperature;BMP_pressure;BME280_temperature;BME280_humidity;BME280_pressure;Samples;Min_cycle;Max_cycle;Signal;HPM_P1;HPM_P2
2021/09/09 00:24:32;;;;;;;6.35;3.70;;;18.10;44.60;;;;;;5056706;28;20091;-67
2021/09/09 00:26:58;;;;;;;5.88;3.40;;;18.00;45.00;;;;;;5056329;28;20025;-67
2021/09/09 00:29:24;;;;;;;8.63;3.10;;;18.00;44.90;;;;;;5056506;28;20033;-66
2021/09/09 00:31:50;;;;;;;4.60;3.40;;;18.00;45.10;;;;;;5056312;28;20123;-66
2021/09/09 00:34:16;;;;;;;8.35;3.10;;;18.00;45.50;;;;;;5056175;28;20065;-65
2021/09/09 00:36:42;;;;;;;4.55;3.10;;;17.90;45.80;;;;;;5056347;28;20061;-66
2021/09/09 00:39:08;;;;;;;8.52;3.33;;;17.90;45.80;;;;;;5056265;28;20029;-66
2021/09/09 00:41:34;;;;;;;4.95;3.10;;;17.90;45.60;;;;;;5056224;28;20029;-66
2021/09/09 00:44:01;;;;;;;4.55;3.45;;;17.90;45.60;;;;;;5055870;28;20432;-66
2021/09/09 00:46:27;;;;;;;6.28;3.50;;;17.90;45.70;;;;;;5038099;28;20036;-66
2021/09/09 00:48:54;;;;;;;6.13;3.70;;;17.80;45.50;;;;;;5055984;28;20021;-65
2021/09/09 00:51:20;;;;;;;4.22;3.13;;;17.80;45.50;;;;;;5056063;28;20486;-66
2021/09/09 00:53:46;;;;;;;6.00;3.50;;;17.80;45.50;;;;;;5055701;28;20079;-66
2021/09/09 00:56:12;;;;;;;4.22;3.28;;;17.80;45.40;;;;;;5056003;28;20025;-67
2021/09/09 00:58:41;;;;;;;9.88;4.78;;;17.80;45.50;;;;;;5055946;28;20098;-65
2021/09/09 01:01:08;;;;;;;4.93;3.58;;;17.70;45.50;;;;;;5055820;28;20048;-66
2021/09/09 01:03:33;;;;;;;4.55;3.38;;;17.70;45.50;;;;;;5053632;28;20108;-66
2021/09/09 01:05:59;;;;;;;11.35;4.18;;;17.70;45.60;;;;;;5055617;28;20111;-66
2021/09/09 01:08:25;;;;;;;5.53;3.42;;;17.70;45.80;;;;;;5055661;28;20090;-66
2021/09/09 01:10:51;;;;;;;12.48;3.42;;;17.70;45.80;;;;;;5055640;28;20501;-66
2021/09/09 01:13:17;;;;;;;5.03;3.38;;;17.60;45.80;;;;;;5043820;28;20103;-66
2021/09/09 01:15:44;;;;;;;5.32;3.13;;;17.70;46.10;;;;;;5055496;28;20025;-66
2021/09/09 01:18:14;;;;;;;5.00;3.42;;;17.60;46.60;;;;;;5053478;28;20051;-66
2021/09/09 01:20:41;;;;;;;5.68;3.50;;;17.60;47.20;;;;;;5055462;28;20036;-66
2021/09/09 01:23:08;;;;;;;5.65;3.38;;;17.60;46.50;;;;;;5054986;28;20029;-67
2021/09/09 01:25:35;;;;;;;8.73;3.50;;;17.50;46.50;;;;;;5055094;28;20032;-65
2021/09/09 01:28:03;;;;;;;5.28;3.50;;;17.50;46.70;;;;;;5055741;28;20032;-65
2021/09/09 01:30:29;;;;;;;3.67;3.05;;;17.40;46.50;;;;;;5054955;28;20053;-66
2021/09/09 01:32:56;;;;;;;5.03;2.90;;;17.40;46.50;;;;;;5054820;28;20053;-67
2021/09/09 01:35:22;;;;;;;4.75;3.22;;;17.40;46.40;;;;;;5054818;28;20036;-65
2021/09/09 01:37:48;;;;;;;7.63;2.50;;;17.30;46.50;;;;;;5037161;28;20047;-66
2021/09/09 01:40:13;;;;;;;3.58;2.72;;;17.40;46.60;;;;;;5054825;28;20059;-66
2021/09/09 01:42:39;;;;;;;4.43;3.20;;;17.30;46.70;;;;;;5054899;28;20386;-65
2021/09/09 01:45:07;;;;;;;5.40;3.42;;;17.30;46.80;;;;;;5054685;28;20104;-67
2021/09/09 01:47:33;;;;;;;4.53;3.35;;;17.30;46.90;;;;;;5054803;28;20455;-67
2021/09/09 01:49:59;;;;;;;3.80;2.70;;;17.20;46.90;;;;;;5037270;28;20391;-66
2021/09/09 01:52:25;;;;;;;5.85;3.13;;;17.30;47.00;;;;;;5054849;28;20033;-66
2021/09/09 01:54:50;;;;;;;6.18;3.70;;;17.20;47.20;;;;;;5054394;28;20032;-65
2021/09/09 01:57:16;;;;;;;4.20;3.10;;;17.20;47.50;;;;;;5053411;28;20032;-66
2021/09/09 01:59:42;;;;;;;4.28;2.95;;;17.20;47.40;;;;;;5054434;28;20043;-65
2021/09/09 02:02:08;;;;;;;3.78;2.80;;;17.10;47.50;;;;;;5054542;28;20489;-66
2021/09/09 02:04:33;;;;;;;5.18;3.53;;;17.10;47.30;;;;;;5054275;28;20025;-66
2021/09/09 02:06:59;;;;;;;6.20;3.75;;;17.10;47.30;;;;;;5054501;28;20033;-66
2021/09/09 02:09:25;;;;;;;5.20;2.97;;;17.10;47.70;;;;;;5054542;28;20052;-67
2021/09/09 02:11:51;;;;;;;2.97;2.50;;;17.10;47.50;;;;;;5054439;28;20021;-66
2021/09/09 02:14:17;;;;;;;4.72;3.35;;;17.10;47.40;;;;;;5054226;28;20029;-67
2021/09/09 02:16:43;;;;;;;4.15;3.15;;;17.00;47.40;;;;;;5054357;28;20029;-65
2021/09/09 02:19:09;;;;;;;9.18;3.33;;;17.00;47.40;;;;;;5054423;28;20020;-66
2021/09/09 02:21:35;;;;;;;6.38;3.72;;;17.00;47.50;;;;;;5054179;28;20021;-67
2021/09/09 02:24:00;;;;;;;5.22;3.45;;;16.90;47.50;;;;;;5053952;28;20455;-66
2021/09/09 02:26:26;;;;;;;5.95;3.38;;;17.00;47.60;;;;;;5054191;28;20025;-67
2021/09/09 02:28:52;;;;;;;4.47;3.25;;;17.00;47.70;;;;;;5054062;28;20029;-66
2021/09/09 02:31:18;;;;;;;4.43;2.97;;;16.90;47.70;;;;;;5052753;28;20095;-66
2021/09/09 02:33:43;;;;;;;6.32;2.75;;;16.90;47.50;;;;;;5054032;28;20029;-67
2021/09/09 02:36:09;;;;;;;4.45;3.08;;;16.90;48.00;;;;;;5053568;28;20066;-66
2021/09/09 02:38:35;;;;;;;6.32;3.45;;;16.90;47.70;;;;;;5053693;28;20028;-66
2021/09/09 02:41:01;;;;;;;5.00;2.95;;;16.90;47.80;;;;;;5053698;28;20051;-66
2021/09/09 02:43:27;;;;;;;6.25;3.65;;;16.80;47.80;;;;;;5053744;28;20021;-66
2021/09/09 02:45:53;;;;;;;4.13;3.10;;;16.80;48.00;;;;;;5053473;28;20028;-66
2021/09/09 02:48:19;;;;;;;4.93;3.50;;;16.80;47.80;;;;;;5053093;28;20029;-66
2021/09/09 02:50:46;;;;;;;4.45;3.20;;;16.80;48.00;;;;;;5053621;28;20021;-66
2021/09/09 02:53:11;;;;;;;5.13;2.70;;;16.80;48.00;;;;;;5053190;28;20054;-67
2021/09/09 02:55:37;;;;;;;4.00;2.85;;;16.80;47.90;;;;;;5035631;28;20548;-67
2021/09/09 02:58:03;;;;;;;7.20;3.00;;;16.80;47.90;;;;;;5053576;28;20017;-66
2021/09/09 03:00:29;;;;;;;4.45;3.08;;;16.70;47.90;;;;;;5053489;28;20031;-66
2021/09/09 03:02:54;;;;;;;3.38;2.78;;;16.70;48.30;;;;;;5052961;28;20462;-67
2021/09/09 03:05:20;;;;;;;3.80;2.88;;;16.70;48.00;;;;;;5053493;28;20025;-67
2021/09/09 03:07:46;;;;;;;5.13;2.88;;;16.70;48.20;;;;;;5053375;28;20021;-65
2021/09/09 03:10:12;;;;;;;6.03;3.22;;;16.70;48.10;;;;;;5053260;28;20523;-66
2021/09/09 03:12:39;;;;;;;3.80;2.97;;;16.70;48.20;;;;;;5053045;28;20017;-66
2021/09/09 03:15:06;;;;;;;6.13;3.60;;;16.70;48.10;;;;;;5053251;28;20497;-66
2021/09/09 03:17:32;;;;;;;4.05;2.67;;;16.70;48.00;;;;;;5053147;28;20108;-68
2021/09/09 03:19:58;;;;;;;6.47;2.90;;;16.70;47.90;;;;;;5053108;28;20029;-66
2021/09/09 03:22:24;;;;;;;4.22;2.60;;;16.70;48.00;;;;;;5052825;28;20025;-67
2021/09/09 03:24:50;;;;;;;3.92;2.63;;;16.70;48.00;;;;;;5053002;28;20025;-66
2021/09/09 03:27:15;;;;;;;6.22;3.15;;;16.70;47.90;;;;;;5052975;28;20550;-67
2021/09/09 03:29:41;;;;;;;7.90;3.50;;;16.60;48.00;;;;;;5052724;28;20131;-66
2021/09/09 03:32:07;;;;;;;4.25;3.17;;;16.60;48.00;;;;;;5034830;28;20079;-67
2021/09/09 03:34:33;;;;;;;8.52;2.63;;;16.70;48.10;;;;;;5052952;28;20048;-67
2021/09/09 03:36:59;;;;;;;3.13;2.60;;;16.60;48.00;;;;;;5052944;28;20059;-67
2021/09/09 03:39:25;;;;;;;3.72;2.67;;;16.60;48.20;;;;;;5052768;28;20536;-66
2021/09/09 03:41:51;;;;;;;4.95;3.22;;;16.60;48.30;;;;;;5052300;28;20414;-66
2021/09/09 03:44:16;;;;;;;3.72;2.70;;;16.60;48.40;;;;;;5051961;28;20024;-66
2021/09/09 03:46:42;;;;;;;4.40;3.05;;;16.60;48.50;;;;;;5052718;28;20021;-65
2021/09/09 03:49:08;;;;;;;4.00;3.05;;;16.60;48.40;;;;;;5052794;28;20051;-66
2021/09/09 03:51:33;;;;;;;12.20;3.17;;;16.60;48.80;;;;;;5052649;28;20100;-67
2021/09/09 03:53:59;;;;;;;4.80;3.28;;;16.60;48.80;;;;;;5052480;28;20028;-66
2021/09/09 03:56:25;;;;;;;16.30;3.40;;;16.60;49.10;;;;;;5052616;28;20033;-66
2021/09/09 03:58:51;;;;;;;6.60;3.35;;;16.60;49.20;;;;;;5030438;28;20030;-66
2021/09/09 04:01:17;;;;;;;4.65;3.53;;;16.50;49.60;;;;;;5046794;28;20257;-66
2021/09/09 04:03:42;;;;;;;5.25;3.60;;;16.50;49.50;;;;;;5050902;28;20380;-66
2021/09/09 04:06:08;;;;;;;7.93;3.33;;;16.50;49.70;;;;;;5051475;28;20055;-66
2021/09/09 04:08:34;;;;;;;5.53;3.50;;;16.50;50.50;;;;;;5052288;28;20024;-65
2021/09/09 04:11:00;;;;;;;6.63;3.53;;;16.50;50.00;;;;;;5052434;28;20049;-66
2021/09/09 04:13:25;;;;;;;5.32;3.67;;;16.50;50.10;;;;;;5052477;28;20017;-65
2021/09/09 04:15:51;;;;;;;8.32;3.67;;;16.50;50.20;;;;;;5052341;28;20490;-65
2021/09/09 04:18:17;;;;;;;5.50;3.80;;;16.40;50.00;;;;;;5051824;28;20021;-65
2021/09/09 04:20:43;;;;;;;6.15;4.35;;;16.40;50.50;;;;;;5052154;28;20382;-66
2021/09/09 04:23:09;;;;;;;4.97;3.55;;;16.40;50.60;;;;;;5051965;28;20060;-66
2021/09/09 04:25:34;;;;;;;6.68;3.70;;;16.40;50.50;;;;;;5052287;28;20029;-65
2021/09/09 04:28:00;;;;;;;11.20;4.68;;;16.30;50.40;;;;;;5052121;28;20429;-66
2021/09/09 04:30:26;;;;;;;7.40;3.60;;;16.30;50.60;;;;;;5051619;28;20033;-66
2021/09/09 04:32:52;;;;;;;12.10;4.32;;;16.30;50.80;;;;;;5052082;28;20025;-65
2021/09/09 04:35:18;;;;;;;8.25;3.72;;;16.30;50.80;;;;;;5052317;28;20025;-66
2021/09/09 04:37:43;;;;;;;10.77;3.88;;;16.30;51.00;;;;;;5052045;28;20526;-65
2021/09/09 04:40:10;;;;;;;7.20;4.10;;;16.30;51.00;;;;;;5052290;28;20082;-66
2021/09/09 04:42:36;;;;;;;7.38;3.53;;;16.30;51.10;;;;;;5052074;28;20029;-66
2021/09/09 04:45:02;;;;;;;7.68;3.60;;;16.30;51.10;;;;;;5052398;28;20506;-65
2021/09/09 04:47:27;;;;;;;6.47;4.18;;;16.20;51.00;;;;;;5051126;28;20091;-66
2021/09/09 04:49:53;;;;;;;11.02;4.03;;;16.20;51.20;;;;;;5051723;28;20065;-66
2021/09/09 04:52:19;;;;;;;10.50;4.15;;;16.20;51.20;;;;;;5052186;28;20398;-65
2021/09/09 04:54:45;;;;;;;11.30;4.30;;;16.20;51.40;;;;;;5055269;28;20092;-66
2021/09/09 04:57:12;;;;;;;5.35;3.45;;;16.20;51.40;;;;;;5055598;28;20039;-66
2021/09/09 04:59:38;;;;;;;11.77;4.13;;;16.20;51.40;;;;;;5055844;28;20025;-66
2021/09/09 05:02:04;;;;;;;5.80;3.65;;;16.20;51.70;;;;;;5055201;28;20056;-66
2021/09/09 05:04:30;;;;;;;11.38;4.25;;;16.20;51.60;;;;;;5055633;28;20064;-65
2021/09/09 05:06:55;;;;;;;6.22;3.85;;;16.30;52.00;;;;;;5055411;28;20513;-65
2021/09/09 05:09:21;;;;;;;11.38;3.30;;;16.30;52.20;;;;;;5055607;28;20053;-66
2021/09/09 05:11:47;;;;;;;6.97;4.00;;;16.30;52.20;;;;;;5055500;28;20390;-66
2021/09/09 05:14:13;;;;;;;5.18;3.40;;;16.30;52.40;;;;;;5055633;28;20500;-66
2021/09/09 05:16:38;;;;;;;7.78;3.75;;;16.30;52.60;;;;;;5055329;28;20029;-67
2021/09/09 05:19:04;;;;;;;13.50;4.47;;;16.40;52.90;;;;;;5054629;28;20108;-66
2021/09/09 05:21:30;;;;;;;6.18;4.05;;;16.40;53.00;;;;;;5054375;28;20375;-66
2021/09/09 05:23:56;;;;;;;5.53;3.72;;;16.50;53.00;;;;;;5054998;28;20028;-68
2021/09/09 05:26:21;;;;;;;5.85;3.75;;;16.50;52.80;;;;;;5052533;28;20447;-66
2021/09/09 05:28:47;;;;;;;5.85;3.83;;;16.60;52.80;;;;;;5052043;28;20017;-66
2021/09/09 05:31:13;;;;;;;6.00;3.70;;;16.70;52.70;;;;;;5054240;28;20044;-67
2021/09/09 05:33:39;;;;;;;7.75;3.88;;;16.70;52.80;;;;;;5053580;28;20059;-66
2021/09/09 05:36:05;;;;;;;12.27;4.40;;;16.70;52.70;;;;;;5054251;28;20492;-66
2021/09/09 05:38:30;;;;;;;8.30;4.80;;;16.80;52.80;;;;;;5054370;28;20092;-66
2021/09/09 05:40:56;;;;;;;7.35;3.58;;;16.80;52.70;;;;;;5040299;28;20166;-67
2021/09/09 05:43:22;;;;;;;6.10;4.05;;;16.90;52.60;;;;;;5054678;28;20040;-66
2021/09/09 05:45:48;;;;;;;9.02;4.47;;;17.00;52.60;;;;;;5054439;28;20036;-67
2021/09/09 05:48:13;;;;;;;6.22;4.05;;;17.00;53.00;;;;;;5054685;28;20019;-67
2021/09/09 05:50:39;;;;;;;16.55;5.07;;;17.10;52.30;;;;;;5054799;28;20052;-67
2021/09/09 05:53:05;;;;;;;9.68;4.60;;;17.10;52.40;;;;;;5054099;28;20033;-67
2021/09/09 05:55:31;;;;;;;6.85;4.38;;;17.20;52.40;;;;;;5051225;28;20032;-67
2021/09/09 05:57:57;;;;;;;12.95;4.43;;;17.20;52.20;;;;;;5053647;28;20195;-67
2021/09/09 06:00:24;;;;;;;6.82;4.10;;;17.30;52.20;;;;;;5054841;28;20052;-67
2021/09/09 06:02:50;;;;;;;13.45;4.75;;;17.40;52.10;;;;;;5053677;28;20025;-66
2021/09/09 06:05:17;;;;;;;6.25;4.30;;;17.40;52.00;;;;;;5053217;28;20525;-66
2021/09/09 06:07:43;;;;;;;9.90;4.95;;;17.50;52.00;;;;;;5053271;28;20025;-67
2021/09/09 06:10:10;;;;;;;8.88;5.18;;;17.60;52.10;;;;;;5054183;28;20020;-66
2021/09/09 06:12:36;;;;;;;5.82;4.07;;;17.60;51.80;;;;;;5054293;28;20420;-66
2021/09/09 06:15:04;;;;;;;7.65;4.35;;;17.70;51.70;;;;;;5053558;28;20037;-66
2021/09/09 06:17:30;;;;;;;5.80;4.32;;;17.80;51.70;;;;;;5053792;28;20029;-68
2021/09/09 06:19:56;;;;;;;12.15;5.15;;;17.80;51.80;;;;;;5054084;28;20025;-67
2021/09/09 06:22:22;;;;;;;11.50;5.22;;;17.90;51.90;;;;;;5053986;28;20138;-66
2021/09/09 06:24:47;;;;;;;17.85;5.57;;;17.90;51.80;;;;;;5054163;28;20055;-66
2021/09/09 06:27:13;;;;;;;17.15;5.93;;;18.00;51.60;;;;;;5053919;28;20024;-67
2021/09/09 06:29:39;;;;;;;13.18;6.05;;;18.10;51.60;;;;;;5053886;28;20028;-67
2021/09/09 06:32:05;;;;;;;16.48;6.28;;;18.10;51.60;;;;;;5054390;28;20125;-66
2021/09/09 06:34:31;;;;;;;10.52;5.93;;;18.20;51.40;;;;;;5054088;28;20033;-66
2021/09/09 06:36:57;;;;;;;13.38;5.88;;;18.30;51.50;;;;;;5054003;28;20044;-66
2021/09/09 06:39:23;;;;;;;10.25;5.35;;;18.30;51.40;;;;;;5053944;28;20029;-66
2021/09/09 06:41:49;;;;;;;11.20;5.70;;;18.40;51.30;;;;;;5053877;28;20032;-67
2021/09/09 06:44:16;;;;;;;11.50;5.55;;;18.50;51.20;;;;;;5053930;28;20025;-65
2021/09/09 06:46:43;;;;;;;26.02;5.30;;;18.50;51.10;;;;;;5035945;28;20025;-66
2021/09/09 06:49:09;;;;;;;11.55;5.57;;;18.60;51.10;;;;;;5053759;28;20458;-66
2021/09/09 06:51:36;;;;;;;12.55;5.50;;;18.60;51.00;;;;;;5053747;28;20031;-66
2021/09/09 06:54:02;;;;;;;12.32;5.28;;;18.70;51.00;;;;;;5053581;28;20028;-65
2021/09/09 06:56:28;;;;;;;10.20;4.15;;;18.80;51.10;;;;;;5053605;28;20525;-65
2021/09/09 06:58:54;;;;;;;8.45;5.43;;;18.90;51.00;;;;;;5053633;28;20045;-67
2021/09/09 07:01:20;;;;;;;14.80;4.57;;;19.00;50.80;;;;;;5053463;28;20100;-66
2021/09/09 07:03:46;;;;;;;10.90;5.40;;;19.00;50.90;;;;;;5053281;28;20435;-67
2021/09/09 07:06:16;;;;;;;12.40;5.65;;;19.10;50.70;;;;;;5053233;28;20052;-67
2021/09/09 07:08:42;;;;;;;18.13;5.05;;;19.20;50.60;;;;;;5053222;28;20031;-67
2021/09/09 07:11:08;;;;;;;12.90;5.60;;;19.30;50.50;;;;;;5053291;28;20104;-66
2021/09/09 07:13:34;;;;;;;17.17;5.05;;;19.30;50.10;;;;;;5053081;28;20434;-66
2021/09/09 07:16:00;;;;;;;11.10;4.90;;;19.40;50.00;;;;;;5052522;28;20053;-67
2021/09/09 07:18:27;;;;;;;17.30;4.95;;;19.50;49.80;;;;;;5053245;28;20428;-67
2021/09/09 07:20:53;;;;;;;9.45;4.97;;;19.60;49.80;;;;;;5035103;28;20176;-67
2021/09/09 07:23:20;;;;;;;8.90;4.57;;;19.70;49.70;;;;;;5053066;28;20159;-67
2021/09/09 07:25:47;;;;;;;12.57;5.30;;;19.70;49.50;;;;;;5035087;28;20055;-67
2021/09/09 07:28:13;;;;;;;31.05;5.75;;;19.80;49.60;;;;;;5053105;28;20031;-67
2021/09/09 07:30:39;;;;;;;14.70;4.55;;;19.90;49.60;;;;;;5052724;28;20109;-67
2021/09/09 07:33:05;;;;;;;11.65;4.78;;;20.00;49.50;;;;;;5052796;28;20029;-68
2021/09/09 07:35:32;;;;;;;11.77;4.55;;;20.00;49.40;;;;;;5052958;28;20072;-68
2021/09/09 07:37:58;;;;;;;10.65;5.07;;;20.10;49.40;;;;;;5034545;28;20078;-68
2021/09/09 07:40:24;;;;;;;14.40;5.05;;;20.20;49.30;;;;;;5034740;28;20033;-67
2021/09/09 07:42:50;;;;;;;11.13;4.75;;;20.30;49.20;;;;;;5052280;28;20035;-66
2021/09/09 07:45:16;;;;;;;23.38;4.63;;;20.30;49.00;;;;;;5052264;28;20095;-66
2021/09/09 07:47:42;;;;;;;11.20;4.95;;;20.40;49.60;;;;;;5052385;28;20402;-67
2021/09/09 07:50:09;;;;;;;13.75;6.25;;;20.50;48.60;;;;;;5034620;28;20427;-66
2021/09/09 07:52:35;;;;;;;20.48;6.18;;;20.60;49.20;;;;;;5052699;28;20104;-67
2021/09/09 07:55:02;;;;;;;23.02;6.00;;;20.60;48.40;;;;;;5034420;28;20036;-68
2021/09/09 07:57:28;;;;;;;13.00;5.88;;;20.70;48.60;;;;;;5052512;28;20053;-67
2021/09/09 07:59:53;;;;;;;16.25;6.00;;;20.80;48.00;;;;;;5034477;28;20049;-67
2021/09/09 08:02:19;;;;;;;15.88;5.05;;;20.90;47.40;;;;;;5052530;28;20025;-67
2021/09/09 08:04:45;;;;;;;9.52;5.38;;;21.00;47.10;;;;;;5052634;28;20025;-67
2021/09/09 08:07:11;;;;;;;12.82;5.03;;;21.10;47.00;;;;;;5052639;28;20056;-66
2021/09/09 08:09:37;;;;;;;14.20;4.78;;;21.10;46.50;;;;;;5052635;28;20021;-66
2021/09/09 08:12:03;;;;;;;19.63;5.97;;;21.30;46.50;;;;;;5052656;28;20159;-67
2021/09/09 08:14:29;;;;;;;11.57;5.07;;;21.30;46.20;;;;;;5052589;28;20029;-67
2021/09/09 08:16:55;;;;;;;22.20;5.28;;;21.40;46.00;;;;;;5052577;28;20028;-68
2021/09/09 08:19:21;;;;;;;7.35;4.70;;;21.60;45.80;;;;;;5052478;28;20033;-66
2021/09/09 08:21:46;;;;;;;12.68;5.72;;;21.70;45.70;;;;;;5052400;28;20029;-66
2021/09/09 08:24:12;;;;;;;12.23;4.40;;;21.70;45.50;;;;;;5052475;28;20060;-67
2021/09/09 08:26:38;;;;;;;9.68;4.53;;;21.80;44.70;;;;;;5052359;28;20021;-66
2021/09/09 08:29:04;;;;;;;8.20;4.00;;;21.90;44.80;;;;;;5054553;28;20017;-66
2021/09/09 08:31:31;;;;;;;9.55;4.75;;;22.00;44.10;;;;;;5056259;28;20049;-67
2021/09/09 08:33:57;;;;;;;21.25;4.60;;;22.10;43.50;;;;;;5056374;28;20039;-66
2021/09/09 08:36:24;;;;;;;14.73;4.50;;;22.20;43.40;;;;;;5056041;28;20538;-66
2021/09/09 08:38:50;;;;;;;9.80;4.80;;;22.30;43.00;;;;;;5055739;28;20032;-66
2021/09/09 08:41:16;;;;;;;14.45;4.20;;;22.40;43.00;;;;;;5038196;28;20029;-67
2021/09/09 08:43:43;;;;;;;10.05;3.88;;;22.50;42.40;;;;;;5056119;28;20017;-67
2021/09/09 08:46:11;;;;;;;13.80;3.95;;;22.60;42.00;;;;;;5056339;28;20462;-66
2021/09/09 08:48:42;;;;;;;8.25;4.75;;;22.60;41.10;;;;;;5055777;28;20025;-67
2021/09/09 08:51:08;;;;;;;10.50;4.15;;;22.70;40.50;;;;;;5056022;28;20493;-67
2021/09/09 08:53:34;;;;;;;10.38;3.40;;;22.80;38.90;;;;;;5055955;28;20025;-67
2021/09/09 08:56:00;;;;;;;7.05;3.88;;;22.90;39.20;;;;;;5055989;28;20021;-67
2021/09/09 08:58:26;;;;;;;5.78;3.13;;;23.00;39.70;;;;;;5055823;28;20036;-66
2021/09/09 09:01:07;;;;;;;14.77;4.20;;;23.10;38.80;;;;;;5055750;28;20099;-67
2021/09/09 09:03:47;;;;;;;14.02;4.00;;;23.20;39.10;;;;;;5055807;28;20025;-66
2021/09/09 09:06:23;;;;;;;8.20;3.78;;;23.30;38.70;;;;;;5038009;28;20021;-66
2021/09/09 09:09:20;;;;;;;6.57;3.88;;;23.40;38.60;;;;;;5055841;28;20020;-66
2021/09/09 09:11:51;;;;;;;7.70;3.65;;;23.50;38.20;;;;;;5039288;28;20436;-67
2021/09/09 09:14:20;;;;;;;8.52;3.70;;;23.60;38.10;;;;;;5055766;28;20545;-67
2021/09/09 09:16:51;;;;;;;8.85;3.55;;;23.70;38.10;;;;;;5055694;28;20029;-66
2021/09/09 09:19:24;;;;;;;9.05;3.70;;;23.80;37.00;;;;;;5055676;28;20021;-66
2021/09/09 09:21:59;;;;;;;7.80;3.83;;;23.80;37.00;;;;;;5037658;28;20068;-66
2021/09/09 09:24:32;;;;;;;10.05;3.67;;;23.90;37.90;;;;;;5037814;28;20021;-67
2021/09/09 09:27:04;;;;;;;7.65;3.60;;;24.00;36.30;;;;;;5037689;28;20070;-66
2021/09/09 09:29:31;;;;;;;8.05;2.85;;;24.00;36.50;;;;;;5055489;28;20025;-67
2021/09/09 09:32:11;;;;;;;4.70;3.50;;;24.10;36.40;;;;;;5055217;28;20499;-67
2021/09/09 09:34:37;;;;;;;6.35;3.13;;;24.20;36.90;;;;;;5037423;28;20032;-67
2021/09/09 09:37:03;;;;;;;6.80;3.72;;;24.30;36.90;;;;;;5055375;28;20029;-67
2021/09/09 09:39:29;;;;;;;5.53;3.10;;;24.30;36.10;;;;;;5036610;28;20108;-67
2021/09/09 09:41:54;;;;;;;5.45;3.67;;;24.40;36.90;;;;;;5055192;28;20112;-66
2021/09/09 09:44:30;;;;;;;6.75;3.00;;;24.50;36.50;;;;;;5055290;28;20083;-67
2021/09/09 09:47:20;;;;;;;5.47;3.10;;;24.50;35.10;;;;;;5055103;28;20075;-67
2021/09/09 09:49:53;;;;;;;8.80;3.60;;;24.60;36.30;;;;;;5054727;28;20017;-67
2021/09/09 09:52:27;;;;;;;6.50;3.10;;;24.70;35.60;;;;;;5054964;28;20021;-67
2021/09/09 09:54:55;;;;;;;4.32;2.60;;;24.70;35.50;;;;;;5054946;28;20391;-66
2021/09/09 09:57:22;;;;;;;4.32;3.00;;;24.80;34.60;;;;;;5054987;28;20025;-67
2021/09/09 09:59:48;;;;;;;6.22;3.03;;;24.90;35.00;;;;;;5054803;28;20060;-67
2021/09/09 10:02:14;;;;;;;4.43;2.40;;;24.90;34.80;;;;;;5054756;28;20064;-67
2021/09/09 10:04:48;;;;;;;8.95;2.92;;;25.00;33.80;;;;;;5054809;28;20024;-67
2021/09/09 10:07:15;;;;;;;8.43;2.95;;;25.00;34.20;;;;;;5054695;28;20025;-67
2021/09/09 10:09:41;;;;;;;5.95;3.10;;;25.00;34.40;;;;;;5054639;28;20017;-67
2021/09/09 10:12:10;;;;;;;12.52;2.92;;;25.10;34.20;;;;;;5054672;28;20025;-67
2021/09/09 10:14:44;;;;;;;3.95;2.38;;;25.20;35.00;;;;;;5054432;28;20029;-66
2021/09/09 10:17:09;;;;;;;;;;;25.20;33.70;;;;;;5055099;28;20021;-67
2021/09/09 10:19:35;;;;;;;7.05;2.67;;;25.30;35.30;;;;;;5054440;28;19908;-68
2021/09/09 10:22:08;;;;;;;4.40;2.70;;;25.40;33.60;;;;;;5054413;28;20021;-67
2021/09/09 10:24:35;;;;;;;4.00;2.75;;;25.40;34.40;;;;;;5054442;28;20025;-67
2021/09/09 10:27:33;;;;;;;4.85;3.20;;;25.40;34.50;;;;;;5054393;28;20021;-67
2021/09/09 10:30:01;;;;;;;5.20;3.28;;;25.50;34.70;;;;;;5053314;28;20170;-67
2021/09/09 10:32:30;;;;;;;7.15;2.80;;;25.50;34.70;;;;;;5054211;28;20052;-67
2021/09/09 10:35:26;;;;;;;9.75;3.25;;;25.60;34.50;;;;;;5054195;28;20103;-68
2021/09/09 10:37:58;;;;;;;10.50;2.92;;;25.70;33.70;;;;;;5052983;28;20405;-68
2021/09/09 10:40:31;;;;;;;5.07;2.72;;;25.70;33.40;;;;;;5054024;28;20024;-67
2021/09/09 10:43:12;;;;;;;5.80;3.40;;;25.70;33.10;;;;;;5054137;28;20032;-67
2021/09/09 10:45:43;;;;;;;5.75;3.92;;;25.80;34.00;;;;;;5054068;28;20514;-67
2021/09/09 10:48:15;;;;;;;3.90;3.10;;;25.80;33.80;;;;;;5054030;28;20029;-67
2021/09/09 10:50:58;;;;;;;4.15;2.88;;;25.80;33.70;;;;;;5053076;28;20612;-67
2021/09/09 10:53:36;;;;;;;5.37;2.90;;;25.90;34.40;;;;;;5053956;28;20025;-67
2021/09/09 10:56:18;;;;;;;5.35;3.17;;;26.00;33.20;;;;;;5053893;28;20152;-66
2021/09/09 10:58:45;;;;;;;3.63;2.58;;;26.00;33.00;;;;;;5053647;28;20029;-67
2021/09/09 11:01:11;;;;;;;6.72;2.90;;;26.10;32.50;;;;;;5053711;28;20036;-67
2021/09/09 11:03:49;;;;;;;5.80;2.60;;;26.10;31.80;;;;;;5053656;28;20021;-67
2021/09/09 11:06:18;;;;;;;6.28;2.92;;;26.10;32.20;;;;;;5053640;28;20021;-67
2021/09/09 11:08:48;;;;;;;7.10;2.47;;;26.20;31.70;;;;;;5053671;28;20025;-67
2021/09/09 11:11:19;;;;;;;5.15;2.53;;;26.20;32.10;;;;;;5053633;28;20147;-67
2021/09/09 11:13:45;;;;;;;6.18;2.72;;;26.20;32.00;;;;;;5053417;28;20100;-68
2021/09/09 11:16:19;;;;;;;5.38;2.70;;;26.30;32.50;;;;;;5053385;28;20032;-68
2021/09/09 11:18:46;;;;;;;5.03;2.88;;;26.30;32.30;;;;;;5053509;28;20025;-67
2021/09/09 11:21:23;;;;;;;4.68;2.95;;;26.40;31.90;;;;;;5053368;28;20025;-68
2021/09/09 11:23:55;;;;;;;4.13;2.75;;;26.40;32.10;;;;;;5053306;28;20023;-67
2021/09/09 11:26:22;;;;;;;4.90;2.83;;;26.50;32.90;;;;;;5053277;28;20104;-67
2021/09/09 11:28:49;;;;;;;5.95;2.78;;;26.50;32.50;;;;;;5053050;28;20051;-68
2021/09/09 11:31:29;;;;;;;5.00;3.00;;;26.60;32.20;;;;;;5052987;28;20099;-67
2021/09/09 11:33:55;;;;;;;4.88;2.97;;;26.60;31.40;;;;;;5053070;28;20079;-67
2021/09/09 11:36:33;;;;;;;6.95;2.88;;;26.70;31.50;;;;;;5053143;28;20025;-67
2021/09/09 11:39:01;;;;;;;9.85;3.95;;;26.80;31.80;;;;;;5052962;28;20029;-67
2021/09/09 11:41:31;;;;;;;5.40;2.47;;;26.80;32.40;;;;;;5052907;28;20024;-67
2021/09/09 11:44:05;;;;;;;8.23;2.40;;;26.90;31.80;;;;;;5052805;28;20055;-67
2021/09/09 11:46:41;;;;;;;;;;;26.90;30.80;;;;;;5053465;28;20048;-67
2021/09/09 11:49:10;;;;;;;6.20;3.00;;;27.00;32.20;;;;;;5052737;28;19911;-67
2021/09/09 11:51:41;;;;;;;9.40;3.00;;;27.10;31.50;;;;;;5052874;28;20052;-67
2021/09/09 11:54:09;;;;;;;3.97;2.70;;;27.10;31.50;;;;;;5052765;28;20024;-67
2021/09/09 11:56:36;;;;;;;10.38;2.75;;;27.20;30.90;;;;;;5052687;28;20386;-68
2021/09/09 11:59:07;;;;;;;6.63;3.00;;;27.20;30.90;;;;;;5052746;28;20024;-68
2021/09/09 12:01:35;;;;;;;7.53;2.83;;;27.20;30.60;;;;;;5052544;28;20025;-67
2021/09/09 12:04:02;;;;;;;5.05;3.20;;;27.30;30.30;;;;;;5034685;28;20029;-67
2021/09/09 12:06:30;;;;;;;3.85;2.50;;;27.30;30.00;;;;;;5052754;28;20521;-67
2021/09/09 12:08:56;;;;;;;3.80;2.80;;;27.30;30.30;;;;;;5052699;28;20021;-66
2021/09/09 12:11:22;;;;;;;6.13;2.72;;;27.40;29.90;;;;;;5052534;28;20025;-68
2021/09/09 12:13:48;;;;;;;5.00;3.05;;;27.40;29.90;;;;;;5052513;28;20096;-68
2021/09/09 12:16:21;;;;;;;4.88;2.70;;;27.40;29.60;;;;;;5052608;28;20539;-67
2021/09/09 12:18:50;;;;;;;7.30;3.10;;;27.50;29.40;;;;;;5052589;28;20029;-68
2021/09/09 12:21:22;;;;;;;4.25;2.60;;;27.50;29.50;;;;;;5052783;28;20021;-67
2021/09/09 12:23:57;;;;;;;4.35;2.83;;;27.60;29.70;;;;;;5052772;28;20021;-68
2021/09/09 12:26:23;;;;;;;6.95;3.17;;;27.60;29.90;;;;;;5052707;28;20049;-67
2021/09/09 12:28:49;;;;;;;6.78;2.92;;;27.70;29.40;;;;;;5034967;28;20462;-67
2021/09/09 12:31:14;;;;;;;7.97;4.25;;;27.80;29.00;;;;;;5052255;28;20049;-68
2021/09/09 12:33:52;;;;;;;6.18;2.90;;;27.80;30.30;;;;;;5051762;28;20341;-67
2021/09/09 12:36:20;;;;;;;4.47;3.22;;;27.80;29.90;;;;;;5052330;28;20028;-67
2021/09/09 12:39:01;;;;;;;5.50;3.00;;;27.90;29.60;;;;;;5052346;28;20089;-67
2021/09/09 12:41:29;;;;;;;6.47;2.60;;;28.00;29.80;;;;;;5052350;28;20025;-67
2021/09/09 12:44:03;;;;;;;12.07;2.58;;;28.10;29.40;;;;;;5052331;28;20067;-67
2021/09/09 12:46:29;;;;;;;5.97;2.88;;;28.10;29.30;;;;;;5052313;28;20028;-67
2021/09/09 12:49:07;;;;;;;3.47;2.30;;;28.10;28.40;;;;;;5052120;28;20017;-67
2021/09/09 12:51:38;;;;;;;3.30;2.40;;;28.10;28.70;;;;;;5052130;28;20536;-68
2021/09/09 12:54:05;;;;;;;4.80;3.05;;;28.20;29.00;;;;;;5052033;28;20446;-67
2021/09/09 12:56:30;;;;;;;5.13;2.90;;;28.20;29.10;;;;;;5052209;28;20363;-67
2021/09/09 12:58:56;;;;;;;3.97;2.85;;;28.30;29.10;;;;;;5052222;28;20079;-68
2021/09/09 13:01:22;;;;;;;4.78;3.05;;;28.30;29.20;;;;;;5034225;28;20053;-67
2021/09/09 13:03:48;;;;;;;6.90;2.80;;;28.30;29.40;;;;;;5052166;28;20029;-69
2021/09/09 13:06:14;;;;;;;4.47;2.95;;;28.40;29.30;;;;;;5052127;28;20032;-68
2021/09/09 13:08:39;;;;;;;5.13;3.25;;;28.40;29.10;;;;;;5034138;28;20478;-68
2021/09/09 13:11:06;;;;;;;5.32;2.72;;;28.50;29.50;;;;;;5052264;28;20439;-68